<?xml version="1.0" encoding="UTF-8" standalone="no" ?>
<gpx xmlns="http://www.topografix.com/GPX/1/1" xmlns:xsi="http://www.w3.org/2001/XMLSchema-instance" xsi:schemaLocation="http://www.topografix.com/GPX/1/1 http://www.topografix.com/GPX/1/1/gpx.xsd" version="1.1" creator="VisuGPX - https://www.visugpx.com">
  <metadata>
    <name>Rando LN</name>
  </metadata>
  <trk>
    <name><![CDATA[Campuac]]></name>
    <extensions>
      <line xmlns="http://www.topografix.com/GPX/gpx_style/0/2">
        <color>ee00ff</color>
        <width>4</width>
      </line>
    </extensions>
    <trkseg>
      <trkpt lat="44.61277" lon="2.51062">
        <ele>398.123</ele>
        <time>2015-08-05T15:14:47Z</time>
      </trkpt>
      <trkpt lat="44.61277" lon="2.51062">
        <ele>398.123</ele>
        <time>2015-08-05T15:14:47Z</time>
      </trkpt>
      <trkpt lat="44.61277" lon="2.51062">
        <ele>398.123</ele>
        <time>2015-08-05T15:14:47Z</time>
      </trkpt>
      <trkpt lat="44.61277" lon="2.51062">
        <ele>398.123</ele>
        <time>2015-08-05T15:14:47Z</time>
      </trkpt>
      <trkpt lat="44.61277" lon="2.51062">
        <ele>398.123</ele>
        <time>2015-08-05T15:14:47Z</time>
      </trkpt>
      <trkpt lat="44.61239" lon="2.5118">
        <ele>396.508</ele>
        <time>2015-08-05T15:15:07Z</time>
      </trkpt>
      <trkpt lat="44.6124" lon="2.51211">
        <ele>396.941</ele>
        <time>2015-08-05T15:15:27Z</time>
      </trkpt>
      <trkpt lat="44.6125" lon="2.51267">
        <ele>397.916</ele>
        <time>2015-08-05T15:15:47Z</time>
      </trkpt>
      <trkpt lat="44.61264" lon="2.51306">
        <ele>401.516</ele>
        <time>2015-08-05T15:16:07Z</time>
      </trkpt>
      <trkpt lat="44.61245" lon="2.51338">
        <ele>396.688</ele>
        <time>2015-08-05T15:16:27Z</time>
      </trkpt>
      <trkpt lat="44.6122" lon="2.5139">
        <ele>392.32</ele>
        <time>2015-08-05T15:16:47Z</time>
      </trkpt>
      <trkpt lat="44.61237" lon="2.51434">
        <ele>397.161</ele>
        <time>2015-08-05T15:17:07Z</time>
      </trkpt>
      <trkpt lat="44.61231" lon="2.51471">
        <ele>397.037</ele>
        <time>2015-08-05T15:17:27Z</time>
      </trkpt>
      <trkpt lat="44.61234" lon="2.51507">
        <ele>398.789</ele>
        <time>2015-08-05T15:17:47Z</time>
      </trkpt>
      <trkpt lat="44.61219" lon="2.51543">
        <ele>402.178</ele>
        <time>2015-08-05T15:18:07Z</time>
      </trkpt>
      <trkpt lat="44.61203" lon="2.51545">
        <ele>405.133</ele>
        <time>2015-08-05T15:18:27Z</time>
      </trkpt>
      <trkpt lat="44.61201" lon="2.51525">
        <ele>402.726</ele>
        <time>2015-08-05T15:18:47Z</time>
      </trkpt>
      <trkpt lat="44.61208" lon="2.51489">
        <ele>399.208</ele>
        <time>2015-08-05T15:19:07Z</time>
      </trkpt>
      <trkpt lat="44.61181" lon="2.51455">
        <ele>405.623</ele>
        <time>2015-08-05T15:19:27Z</time>
      </trkpt>
      <trkpt lat="44.61141" lon="2.5143">
        <ele>415.078</ele>
        <time>2015-08-05T15:19:47Z</time>
      </trkpt>
      <trkpt lat="44.61132" lon="2.51372">
        <ele>411.468</ele>
        <time>2015-08-05T15:20:07Z</time>
      </trkpt>
      <trkpt lat="44.61118" lon="2.51352">
        <ele>409.16</ele>
        <time>2015-08-05T15:20:27Z</time>
      </trkpt>
      <trkpt lat="44.61055" lon="2.51361">
        <ele>410.952</ele>
        <time>2015-08-05T15:20:47Z</time>
      </trkpt>
      <trkpt lat="44.61053" lon="2.51408">
        <ele>417.763</ele>
        <time>2015-08-05T15:21:07Z</time>
      </trkpt>
      <trkpt lat="44.6104" lon="2.51431">
        <ele>421.089</ele>
        <time>2015-08-05T15:21:27Z</time>
      </trkpt>
      <trkpt lat="44.61045" lon="2.51516">
        <ele>437.431</ele>
        <time>2015-08-05T15:21:47Z</time>
      </trkpt>
      <trkpt lat="44.60976" lon="2.51549">
        <ele>442.348</ele>
        <time>2015-08-05T15:22:07Z</time>
      </trkpt>
      <trkpt lat="44.60965" lon="2.51568">
        <ele>447.361</ele>
        <time>2015-08-05T15:22:27Z</time>
      </trkpt>
      <trkpt lat="44.60948" lon="2.51567">
        <ele>447.117</ele>
        <time>2015-08-05T15:22:47Z</time>
      </trkpt>
      <trkpt lat="44.60919" lon="2.51574">
        <ele>446.908</ele>
        <time>2015-08-05T15:23:07Z</time>
      </trkpt>
      <trkpt lat="44.60921" lon="2.51618">
        <ele>453.56</ele>
        <time>2015-08-05T15:23:27Z</time>
      </trkpt>
      <trkpt lat="44.60917" lon="2.51646">
        <ele>457.625</ele>
        <time>2015-08-05T15:23:47Z</time>
      </trkpt>
      <trkpt lat="44.60905" lon="2.51655">
        <ele>459.835</ele>
        <time>2015-08-05T15:24:07Z</time>
      </trkpt>
      <trkpt lat="44.60879" lon="2.51629">
        <ele>453.037</ele>
        <time>2015-08-05T15:24:27Z</time>
      </trkpt>
      <trkpt lat="44.60831" lon="2.51629">
        <ele>452.269</ele>
        <time>2015-08-05T15:24:47Z</time>
      </trkpt>
      <trkpt lat="44.60799" lon="2.51608">
        <ele>448.45</ele>
        <time>2015-08-05T15:25:07Z</time>
      </trkpt>
      <trkpt lat="44.60783" lon="2.51578">
        <ele>444.036</ele>
        <time>2015-08-05T15:25:27Z</time>
      </trkpt>
      <trkpt lat="44.60762" lon="2.51567">
        <ele>442.088</ele>
        <time>2015-08-05T15:25:47Z</time>
      </trkpt>
      <trkpt lat="44.60732" lon="2.51568">
        <ele>441.966</ele>
        <time>2015-08-05T15:26:07Z</time>
      </trkpt>
      <trkpt lat="44.60688" lon="2.51591">
        <ele>443.929</ele>
        <time>2015-08-05T15:26:27Z</time>
      </trkpt>
      <trkpt lat="44.6067" lon="2.51608">
        <ele>445.721</ele>
        <time>2015-08-05T15:26:47Z</time>
      </trkpt>
      <trkpt lat="44.60657" lon="2.5161">
        <ele>445.108</ele>
        <time>2015-08-05T15:27:07Z</time>
      </trkpt>
      <trkpt lat="44.60645" lon="2.51623">
        <ele>445.262</ele>
        <time>2015-08-05T15:27:27Z</time>
      </trkpt>
      <trkpt lat="44.60619" lon="2.51633">
        <ele>441.067</ele>
        <time>2015-08-05T15:27:47Z</time>
      </trkpt>
      <trkpt lat="44.60634" lon="2.51685">
        <ele>447.227</ele>
        <time>2015-08-05T15:28:07Z</time>
      </trkpt>
      <trkpt lat="44.60596" lon="2.51737">
        <ele>448.659</ele>
        <time>2015-08-05T15:28:27Z</time>
      </trkpt>
      <trkpt lat="44.60547" lon="2.51784">
        <ele>447.461</ele>
        <time>2015-08-05T15:28:47Z</time>
      </trkpt>
      <trkpt lat="44.60543" lon="2.51827">
        <ele>449.412</ele>
        <time>2015-08-05T15:29:07Z</time>
      </trkpt>
      <trkpt lat="44.60596" lon="2.51861">
        <ele>464.898</ele>
        <time>2015-08-05T15:29:27Z</time>
      </trkpt>
      <trkpt lat="44.60602" lon="2.5188">
        <ele>467.29</ele>
        <time>2015-08-05T15:29:47Z</time>
      </trkpt>
      <trkpt lat="44.60563" lon="2.5191">
        <ele>465.719</ele>
        <time>2015-08-05T15:30:07Z</time>
      </trkpt>
      <trkpt lat="44.60542" lon="2.51946">
        <ele>473.809</ele>
        <time>2015-08-05T15:30:27Z</time>
      </trkpt>
      <trkpt lat="44.605" lon="2.51945">
        <ele>468.219</ele>
        <time>2015-08-05T15:30:47Z</time>
      </trkpt>
      <trkpt lat="44.60471" lon="2.51994">
        <ele>478.308</ele>
        <time>2015-08-05T15:31:07Z</time>
      </trkpt>
      <trkpt lat="44.60405" lon="2.5207">
        <ele>481.317</ele>
        <time>2015-08-05T15:31:27Z</time>
      </trkpt>
      <trkpt lat="44.60362" lon="2.521">
        <ele>477.872</ele>
        <time>2015-08-05T15:31:47Z</time>
      </trkpt>
      <trkpt lat="44.60339" lon="2.52148">
        <ele>475.482</ele>
        <time>2015-08-05T15:32:07Z</time>
      </trkpt>
      <trkpt lat="44.60367" lon="2.52192">
        <ele>480.754</ele>
        <time>2015-08-05T15:32:27Z</time>
      </trkpt>
      <trkpt lat="44.60381" lon="2.52248">
        <ele>477.626</ele>
        <time>2015-08-05T15:32:47Z</time>
      </trkpt>
      <trkpt lat="44.60402" lon="2.52279">
        <ele>481.687</ele>
        <time>2015-08-05T15:33:07Z</time>
      </trkpt>
      <trkpt lat="44.60413" lon="2.52316">
        <ele>483.643</ele>
        <time>2015-08-05T15:33:27Z</time>
      </trkpt>
      <trkpt lat="44.60435" lon="2.52351">
        <ele>487.665</ele>
        <time>2015-08-05T15:33:47Z</time>
      </trkpt>
      <trkpt lat="44.60434" lon="2.5237">
        <ele>488.112</ele>
        <time>2015-08-05T15:34:07Z</time>
      </trkpt>
      <trkpt lat="44.60402" lon="2.52402">
        <ele>485.132</ele>
        <time>2015-08-05T15:34:27Z</time>
      </trkpt>
      <trkpt lat="44.60384" lon="2.52454">
        <ele>495.205</ele>
        <time>2015-08-05T15:34:47Z</time>
      </trkpt>
      <trkpt lat="44.6032" lon="2.52471">
        <ele>486.208</ele>
        <time>2015-08-05T15:35:07Z</time>
      </trkpt>
      <trkpt lat="44.60287" lon="2.52502">
        <ele>491.837</ele>
        <time>2015-08-05T15:35:27Z</time>
      </trkpt>
      <trkpt lat="44.60257" lon="2.52518">
        <ele>488.142</ele>
        <time>2015-08-05T15:35:47Z</time>
      </trkpt>
      <trkpt lat="44.60239" lon="2.52538">
        <ele>488.482</ele>
        <time>2015-08-05T15:36:07Z</time>
      </trkpt>
      <trkpt lat="44.60207" lon="2.52562">
        <ele>486.534</ele>
        <time>2015-08-05T15:36:27Z</time>
      </trkpt>
      <trkpt lat="44.6017" lon="2.52651">
        <ele>494.616</ele>
        <time>2015-08-05T15:36:47Z</time>
      </trkpt>
      <trkpt lat="44.60145" lon="2.52678">
        <ele>500.517</ele>
        <time>2015-08-05T15:37:07Z</time>
      </trkpt>
      <trkpt lat="44.60108" lon="2.52666">
        <ele>496.813</ele>
        <time>2015-08-05T15:37:27Z</time>
      </trkpt>
      <trkpt lat="44.60034" lon="2.5277">
        <ele>505.625</ele>
        <time>2015-08-05T15:37:47Z</time>
      </trkpt>
      <trkpt lat="44.59999" lon="2.52778">
        <ele>507.153</ele>
        <time>2015-08-05T15:38:07Z</time>
      </trkpt>
      <trkpt lat="44.59979" lon="2.52792">
        <ele>510.404</ele>
        <time>2015-08-05T15:38:27Z</time>
      </trkpt>
      <trkpt lat="44.59974" lon="2.52811">
        <ele>513.914</ele>
        <time>2015-08-05T15:38:47Z</time>
      </trkpt>
      <trkpt lat="44.60026" lon="2.52847">
        <ele>522.208</ele>
        <time>2015-08-05T15:39:07Z</time>
      </trkpt>
      <trkpt lat="44.60115" lon="2.52794">
        <ele>526.391</ele>
        <time>2015-08-05T15:39:27Z</time>
      </trkpt>
      <trkpt lat="44.60219" lon="2.52827">
        <ele>548.446</ele>
        <time>2015-08-05T15:39:47Z</time>
      </trkpt>
      <trkpt lat="44.6022" lon="2.52839">
        <ele>552.436</ele>
        <time>2015-08-05T15:40:07Z</time>
      </trkpt>
      <trkpt lat="44.60183" lon="2.5285">
        <ele>549.118</ele>
        <time>2015-08-05T15:40:27Z</time>
      </trkpt>
      <trkpt lat="44.60142" lon="2.52875">
        <ele>550.82</ele>
        <time>2015-08-05T15:40:47Z</time>
      </trkpt>
      <trkpt lat="44.601" lon="2.52924">
        <ele>556.131</ele>
        <time>2015-08-05T15:41:07Z</time>
      </trkpt>
      <trkpt lat="44.60078" lon="2.52941">
        <ele>558.027</ele>
        <time>2015-08-05T15:41:27Z</time>
      </trkpt>
      <trkpt lat="44.6002" lon="2.53016">
        <ele>566.849</ele>
        <time>2015-08-05T15:41:47Z</time>
      </trkpt>
      <trkpt lat="44.60003" lon="2.53069">
        <ele>573.265</ele>
        <time>2015-08-05T15:42:07Z</time>
      </trkpt>
      <trkpt lat="44.59975" lon="2.53295">
        <ele>593.668</ele>
        <time>2015-08-05T15:42:27Z</time>
      </trkpt>
      <trkpt lat="44.59953" lon="2.53326">
        <ele>592.514</ele>
        <time>2015-08-05T15:42:47Z</time>
      </trkpt>
      <trkpt lat="44.59927" lon="2.53334">
        <ele>589.108</ele>
        <time>2015-08-05T15:43:07Z</time>
      </trkpt>
      <trkpt lat="44.59891" lon="2.53359">
        <ele>587.982</ele>
        <time>2015-08-05T15:43:27Z</time>
      </trkpt>
      <trkpt lat="44.59881" lon="2.53371">
        <ele>588.517</ele>
        <time>2015-08-05T15:43:47Z</time>
      </trkpt>
      <trkpt lat="44.59866" lon="2.53377">
        <ele>587.037</ele>
        <time>2015-08-05T15:44:07Z</time>
      </trkpt>
      <trkpt lat="44.59851" lon="2.53408">
        <ele>590.139</ele>
        <time>2015-08-05T15:44:27Z</time>
      </trkpt>
      <trkpt lat="44.59842" lon="2.53438">
        <ele>593.881</ele>
        <time>2015-08-05T15:44:47Z</time>
      </trkpt>
      <trkpt lat="44.59786" lon="2.53469">
        <ele>586.782</ele>
        <time>2015-08-05T15:45:07Z</time>
      </trkpt>
      <trkpt lat="44.59762" lon="2.53487">
        <ele>584.568</ele>
        <time>2015-08-05T15:45:27Z</time>
      </trkpt>
      <trkpt lat="44.59723" lon="2.53483">
        <ele>577.49</ele>
        <time>2015-08-05T15:45:47Z</time>
      </trkpt>
      <trkpt lat="44.59695" lon="2.53473">
        <ele>572.251</ele>
        <time>2015-08-05T15:46:07Z</time>
      </trkpt>
      <trkpt lat="44.59653" lon="2.5347">
        <ele>568.501</ele>
        <time>2015-08-05T15:46:27Z</time>
      </trkpt>
      <trkpt lat="44.59615" lon="2.53487">
        <ele>566.411</ele>
        <time>2015-08-05T15:46:47Z</time>
      </trkpt>
      <trkpt lat="44.59604" lon="2.53558">
        <ele>575.608</ele>
        <time>2015-08-05T15:47:07Z</time>
      </trkpt>
      <trkpt lat="44.59577" lon="2.53554">
        <ele>571.351</ele>
        <time>2015-08-05T15:47:27Z</time>
      </trkpt>
      <trkpt lat="44.59528" lon="2.53567">
        <ele>569.556</ele>
        <time>2015-08-05T15:47:47Z</time>
      </trkpt>
      <trkpt lat="44.59493" lon="2.53555">
        <ele>567.216</ele>
        <time>2015-08-05T15:48:07Z</time>
      </trkpt>
      <trkpt lat="44.59438" lon="2.53506">
        <ele>563.278</ele>
        <time>2015-08-05T15:48:27Z</time>
      </trkpt>
      <trkpt lat="44.59418" lon="2.53497">
        <ele>561.55</ele>
        <time>2015-08-05T15:48:47Z</time>
      </trkpt>
      <trkpt lat="44.59396" lon="2.53497">
        <ele>559.981</ele>
        <time>2015-08-05T15:49:07Z</time>
      </trkpt>
      <trkpt lat="44.59367" lon="2.53511">
        <ele>558.017</ele>
        <time>2015-08-05T15:49:27Z</time>
      </trkpt>
      <trkpt lat="44.5934" lon="2.53516">
        <ele>552.929</ele>
        <time>2015-08-05T15:49:47Z</time>
      </trkpt>
      <trkpt lat="44.59298" lon="2.53531">
        <ele>546.135</ele>
        <time>2015-08-05T15:50:07Z</time>
      </trkpt>
      <trkpt lat="44.59285" lon="2.53558">
        <ele>543.786</ele>
        <time>2015-08-05T15:50:27Z</time>
      </trkpt>
      <trkpt lat="44.59284" lon="2.5365">
        <ele>536.714</ele>
        <time>2015-08-05T15:50:47Z</time>
      </trkpt>
      <trkpt lat="44.59291" lon="2.5367">
        <ele>537.008</ele>
        <time>2015-08-05T15:51:07Z</time>
      </trkpt>
      <trkpt lat="44.5935" lon="2.53738">
        <ele>538.329</ele>
        <time>2015-08-05T15:51:27Z</time>
      </trkpt>
      <trkpt lat="44.5936" lon="2.53763">
        <ele>537.424</ele>
        <time>2015-08-05T15:51:47Z</time>
      </trkpt>
      <trkpt lat="44.59361" lon="2.53787">
        <ele>535.384</ele>
        <time>2015-08-05T15:52:07Z</time>
      </trkpt>
      <trkpt lat="44.59349" lon="2.53816">
        <ele>533.826</ele>
        <time>2015-08-05T15:52:27Z</time>
      </trkpt>
      <trkpt lat="44.59368" lon="2.53849">
        <ele>537.338</ele>
        <time>2015-08-05T15:52:47Z</time>
      </trkpt>
      <trkpt lat="44.5936" lon="2.53872">
        <ele>539.099</ele>
        <time>2015-08-05T15:53:07Z</time>
      </trkpt>
      <trkpt lat="44.59341" lon="2.53882">
        <ele>541.615</ele>
        <time>2015-08-05T15:53:27Z</time>
      </trkpt>
      <trkpt lat="44.5932" lon="2.53877">
        <ele>542.187</ele>
        <time>2015-08-05T15:53:47Z</time>
      </trkpt>
      <trkpt lat="44.5928" lon="2.53885">
        <ele>545.682</ele>
        <time>2015-08-05T15:54:07Z</time>
      </trkpt>
      <trkpt lat="44.59253" lon="2.5387">
        <ele>537.443</ele>
        <time>2015-08-05T15:54:27Z</time>
      </trkpt>
      <trkpt lat="44.5922" lon="2.53877">
        <ele>535.517</ele>
        <time>2015-08-05T15:54:47Z</time>
      </trkpt>
      <trkpt lat="44.59105" lon="2.53977">
        <ele>545.308</ele>
        <time>2015-08-05T15:55:07Z</time>
      </trkpt>
      <trkpt lat="44.59104" lon="2.5409">
        <ele>551.184</ele>
        <time>2015-08-05T15:55:27Z</time>
      </trkpt>
      <trkpt lat="44.59135" lon="2.54105">
        <ele>558.529</ele>
        <time>2015-08-05T15:55:47Z</time>
      </trkpt>
      <trkpt lat="44.59146" lon="2.54134">
        <ele>559.799</ele>
        <time>2015-08-05T15:56:07Z</time>
      </trkpt>
      <trkpt lat="44.59151" lon="2.5417">
        <ele>562.581</ele>
        <time>2015-08-05T15:56:27Z</time>
      </trkpt>
      <trkpt lat="44.59113" lon="2.54172">
        <ele>557.773</ele>
        <time>2015-08-05T15:56:47Z</time>
      </trkpt>
      <trkpt lat="44.59094" lon="2.54193">
        <ele>559.114</ele>
        <time>2015-08-05T15:57:07Z</time>
      </trkpt>
      <trkpt lat="44.59087" lon="2.54223">
        <ele>563.42</ele>
        <time>2015-08-05T15:57:27Z</time>
      </trkpt>
      <trkpt lat="44.59097" lon="2.54256">
        <ele>567.592</ele>
        <time>2015-08-05T15:57:47Z</time>
      </trkpt>
      <trkpt lat="44.5912" lon="2.54252">
        <ele>568.548</ele>
        <time>2015-08-05T15:58:07Z</time>
      </trkpt>
      <trkpt lat="44.59121" lon="2.54293">
        <ele>571.161</ele>
        <time>2015-08-05T15:58:27Z</time>
      </trkpt>
      <trkpt lat="44.59138" lon="2.54343">
        <ele>576.017</ele>
        <time>2015-08-05T15:58:47Z</time>
      </trkpt>
      <trkpt lat="44.59147" lon="2.54412">
        <ele>584.108</ele>
        <time>2015-08-05T15:59:07Z</time>
      </trkpt>
      <trkpt lat="44.59182" lon="2.54431">
        <ele>588.47</ele>
        <time>2015-08-05T15:59:27Z</time>
      </trkpt>
      <trkpt lat="44.59155" lon="2.54464">
        <ele>591.365</ele>
        <time>2015-08-05T15:59:47Z</time>
      </trkpt>
      <trkpt lat="44.59129" lon="2.54522">
        <ele>600.125</ele>
        <time>2015-08-05T16:00:07Z</time>
      </trkpt>
      <trkpt lat="44.59061" lon="2.54555">
        <ele>602.167</ele>
        <time>2015-08-05T16:00:27Z</time>
      </trkpt>
      <trkpt lat="44.5899" lon="2.54634">
        <ele>608.869</ele>
        <time>2015-08-05T16:00:47Z</time>
      </trkpt>
      <trkpt lat="44.58965" lon="2.54644">
        <ele>609.55</ele>
        <time>2015-08-05T16:01:07Z</time>
      </trkpt>
      <trkpt lat="44.5895" lon="2.54727">
        <ele>619.316</ele>
        <time>2015-08-05T16:01:27Z</time>
      </trkpt>
      <trkpt lat="44.58955" lon="2.54795">
        <ele>625.938</ele>
        <time>2015-08-05T16:01:47Z</time>
      </trkpt>
      <trkpt lat="44.58763" lon="2.5487">
        <ele>612.549</ele>
        <time>2015-08-05T16:02:07Z</time>
      </trkpt>
      <trkpt lat="44.58693" lon="2.54914">
        <ele>610.802</ele>
        <time>2015-08-05T16:02:27Z</time>
      </trkpt>
      <trkpt lat="44.58687" lon="2.54935">
        <ele>612.422</ele>
        <time>2015-08-05T16:02:47Z</time>
      </trkpt>
      <trkpt lat="44.58633" lon="2.54973">
        <ele>617.008</ele>
        <time>2015-08-05T16:03:07Z</time>
      </trkpt>
      <trkpt lat="44.58626" lon="2.54988">
        <ele>619.96</ele>
        <time>2015-08-05T16:03:27Z</time>
      </trkpt>
      <trkpt lat="44.5854" lon="2.54972">
        <ele>612.975</ele>
        <time>2015-08-05T16:03:47Z</time>
      </trkpt>
      <trkpt lat="44.58519" lon="2.54941">
        <ele>609.585</ele>
        <time>2015-08-05T16:04:07Z</time>
      </trkpt>
      <trkpt lat="44.58475" lon="2.54947">
        <ele>608.357</ele>
        <time>2015-08-05T16:04:27Z</time>
      </trkpt>
      <trkpt lat="44.58445" lon="2.54964">
        <ele>610.139</ele>
        <time>2015-08-05T16:04:47Z</time>
      </trkpt>
      <trkpt lat="44.5843" lon="2.55021">
        <ele>614.53</ele>
        <time>2015-08-05T16:05:07Z</time>
      </trkpt>
      <trkpt lat="44.58372" lon="2.55136">
        <ele>615.426</ele>
        <time>2015-08-05T16:05:27Z</time>
      </trkpt>
      <trkpt lat="44.58357" lon="2.55193">
        <ele>617.398</ele>
        <time>2015-08-05T16:05:47Z</time>
      </trkpt>
      <trkpt lat="44.58286" lon="2.55209">
        <ele>620.547</ele>
        <time>2015-08-05T16:06:07Z</time>
      </trkpt>
      <trkpt lat="44.58238" lon="2.55167">
        <ele>618.929</ele>
        <time>2015-08-05T16:06:27Z</time>
      </trkpt>
      <trkpt lat="44.58205" lon="2.55155">
        <ele>618.321</ele>
        <time>2015-08-05T16:06:47Z</time>
      </trkpt>
      <trkpt lat="44.58165" lon="2.55154">
        <ele>614.508</ele>
        <time>2015-08-05T16:07:07Z</time>
      </trkpt>
      <trkpt lat="44.58065" lon="2.55226">
        <ele>613.05</ele>
        <time>2015-08-05T16:07:27Z</time>
      </trkpt>
      <trkpt lat="44.58024" lon="2.55193">
        <ele>610.455</ele>
        <time>2015-08-05T16:07:47Z</time>
      </trkpt>
      <trkpt lat="44.57962" lon="2.55156">
        <ele>616.095</ele>
        <time>2015-08-05T16:08:07Z</time>
      </trkpt>
      <trkpt lat="44.57874" lon="2.55173">
        <ele>615.427</ele>
        <time>2015-08-05T16:08:27Z</time>
      </trkpt>
      <trkpt lat="44.57816" lon="2.55193">
        <ele>619.279</ele>
        <time>2015-08-05T16:08:47Z</time>
      </trkpt>
      <trkpt lat="44.57741" lon="2.55159">
        <ele>619.66</ele>
        <time>2015-08-05T16:09:07Z</time>
      </trkpt>
      <trkpt lat="44.57724" lon="2.55193">
        <ele>621.086</ele>
        <time>2015-08-05T16:09:27Z</time>
      </trkpt>
      <trkpt lat="44.57703" lon="2.55287">
        <ele>620.638</ele>
        <time>2015-08-05T16:09:47Z</time>
      </trkpt>
      <trkpt lat="44.57682" lon="2.55307">
        <ele>619.193</ele>
        <time>2015-08-05T16:10:07Z</time>
      </trkpt>
      <trkpt lat="44.5766" lon="2.55394">
        <ele>616.765</ele>
        <time>2015-08-05T16:10:27Z</time>
      </trkpt>
      <trkpt lat="44.57653" lon="2.55464">
        <ele>613.821</ele>
        <time>2015-08-05T16:10:47Z</time>
      </trkpt>
      <trkpt lat="44.57668" lon="2.5552">
        <ele>617.308</ele>
        <time>2015-08-05T16:11:07Z</time>
      </trkpt>
      <trkpt lat="44.5767" lon="2.55577">
        <ele>617.165</ele>
        <time>2015-08-05T16:11:27Z</time>
      </trkpt>
      <trkpt lat="44.57685" lon="2.55663">
        <ele>618.01</ele>
        <time>2015-08-05T16:11:47Z</time>
      </trkpt>
      <trkpt lat="44.57643" lon="2.55769">
        <ele>621.78</ele>
        <time>2015-08-05T16:12:07Z</time>
      </trkpt>
      <trkpt lat="44.57598" lon="2.55798">
        <ele>620.192</ele>
        <time>2015-08-05T16:12:27Z</time>
      </trkpt>
      <trkpt lat="44.57591" lon="2.55832">
        <ele>622.464</ele>
        <time>2015-08-05T16:12:47Z</time>
      </trkpt>
      <trkpt lat="44.57597" lon="2.55867">
        <ele>622.755</ele>
        <time>2015-08-05T16:13:07Z</time>
      </trkpt>
      <trkpt lat="44.57656" lon="2.55907">
        <ele>624.481</ele>
        <time>2015-08-05T16:13:27Z</time>
      </trkpt>
      <trkpt lat="44.57631" lon="2.5599">
        <ele>620.653</ele>
        <time>2015-08-05T16:13:47Z</time>
      </trkpt>
      <trkpt lat="44.57599" lon="2.56042">
        <ele>615.559</ele>
        <time>2015-08-05T16:14:07Z</time>
      </trkpt>
      <trkpt lat="44.57555" lon="2.56079">
        <ele>609.903</ele>
        <time>2015-08-05T16:14:27Z</time>
      </trkpt>
      <trkpt lat="44.57537" lon="2.56153">
        <ele>611.223</ele>
        <time>2015-08-05T16:14:47Z</time>
      </trkpt>
      <trkpt lat="44.57507" lon="2.56222">
        <ele>612.008</ele>
        <time>2015-08-05T16:15:07Z</time>
      </trkpt>
      <trkpt lat="44.57465" lon="2.56282">
        <ele>618.651</ele>
        <time>2015-08-05T16:15:27Z</time>
      </trkpt>
      <trkpt lat="44.57439" lon="2.5635">
        <ele>623.676</ele>
        <time>2015-08-05T16:15:47Z</time>
      </trkpt>
      <trkpt lat="44.57391" lon="2.56393">
        <ele>624.566</ele>
        <time>2015-08-05T16:16:07Z</time>
      </trkpt>
      <trkpt lat="44.5737" lon="2.56534">
        <ele>632.948</ele>
        <time>2015-08-05T16:16:27Z</time>
      </trkpt>
      <trkpt lat="44.57339" lon="2.56638">
        <ele>631.09</ele>
        <time>2015-08-05T16:16:47Z</time>
      </trkpt>
      <trkpt lat="44.57296" lon="2.56622">
        <ele>632.191</ele>
        <time>2015-08-05T16:17:07Z</time>
      </trkpt>
      <trkpt lat="44.57272" lon="2.56653">
        <ele>636.347</ele>
        <time>2015-08-05T16:17:27Z</time>
      </trkpt>
      <trkpt lat="44.57227" lon="2.56688">
        <ele>642.849</ele>
        <time>2015-08-05T16:17:47Z</time>
      </trkpt>
      <trkpt lat="44.57147" lon="2.56696">
        <ele>643.747</ele>
        <time>2015-08-05T16:18:07Z</time>
      </trkpt>
      <trkpt lat="44.57121" lon="2.5665">
        <ele>644.629</ele>
        <time>2015-08-05T16:18:27Z</time>
      </trkpt>
      <trkpt lat="44.57116" lon="2.56758">
        <ele>645.221</ele>
        <time>2015-08-05T16:18:47Z</time>
      </trkpt>
      <trkpt lat="44.57097" lon="2.56849">
        <ele>649.608</ele>
        <time>2015-08-05T16:19:07Z</time>
      </trkpt>
      <trkpt lat="44.57057" lon="2.56915">
        <ele>651.02</ele>
        <time>2015-08-05T16:19:27Z</time>
      </trkpt>
      <trkpt lat="44.57035" lon="2.5696">
        <ele>651.045</ele>
        <time>2015-08-05T16:19:47Z</time>
      </trkpt>
      <trkpt lat="44.57068" lon="2.57036">
        <ele>651.485</ele>
        <time>2015-08-05T16:20:07Z</time>
      </trkpt>
      <trkpt lat="44.57094" lon="2.57069">
        <ele>653.077</ele>
        <time>2015-08-05T16:20:27Z</time>
      </trkpt>
      <trkpt lat="44.57197" lon="2.57165">
        <ele>654.179</ele>
        <time>2015-08-05T16:20:47Z</time>
      </trkpt>
      <trkpt lat="44.57216" lon="2.57261">
        <ele>654.52</ele>
        <time>2015-08-05T16:21:07Z</time>
      </trkpt>
      <trkpt lat="44.57277" lon="2.5737">
        <ele>660.946</ele>
        <time>2015-08-05T16:21:27Z</time>
      </trkpt>
      <trkpt lat="44.57311" lon="2.5746">
        <ele>658.128</ele>
        <time>2015-08-05T16:21:47Z</time>
      </trkpt>
      <trkpt lat="44.57395" lon="2.57619">
        <ele>656.611</ele>
        <time>2015-08-05T16:22:07Z</time>
      </trkpt>
      <trkpt lat="44.57404" lon="2.57675">
        <ele>657.721</ele>
        <time>2015-08-05T16:22:27Z</time>
      </trkpt>
      <trkpt lat="44.57245" lon="2.58071">
        <ele>652.503</ele>
        <time>2015-08-05T16:22:47Z</time>
      </trkpt>
      <trkpt lat="44.57177" lon="2.58318">
        <ele>652.308</ele>
        <time>2015-08-05T16:23:07Z</time>
      </trkpt>
      <trkpt lat="44.57165" lon="2.58442">
        <ele>656.037</ele>
        <time>2015-08-05T16:23:27Z</time>
      </trkpt>
      <trkpt lat="44.57082" lon="2.58632">
        <ele>648.812</ele>
        <time>2015-08-05T16:23:47Z</time>
      </trkpt>
      <trkpt lat="44.57066" lon="2.58764">
        <ele>646.042</ele>
        <time>2015-08-05T16:24:07Z</time>
      </trkpt>
      <trkpt lat="44.57032" lon="2.58808">
        <ele>644.814</ele>
        <time>2015-08-05T16:24:27Z</time>
      </trkpt>
      <trkpt lat="44.5695" lon="2.58863">
        <ele>652.746</ele>
        <time>2015-08-05T16:24:47Z</time>
      </trkpt>
      <trkpt lat="44.56924" lon="2.589">
        <ele>654.057</ele>
        <time>2015-08-05T16:25:07Z</time>
      </trkpt>
    </trkseg>
  </trk>
</gpx>